Time;durP1;ratioP1;P1;durP2;ratioP2;P2;SDS_P1;SDS_P2;PMS_P1;PMS_P2;Temp;Humidity;BMP_temperature;BMP_pressure;BME280_temperature;BME280_humidity;BME280_pressure;Samples;Min_cycle;Max_cycle;Signal;HPM_P1;HPM_P2
2022/09/24 00:00:52;;;;;;;10.30;6.20;;;;;;;;;;5033406;28;20104;-56
2022/09/24 00:03:23;;;;;;;9.40;6.78;;;;;;;;;;5029491;28;20029;-56
2022/09/24 00:05:50;;;;;;;8.95;6.20;;;;;;;;;;5032055;28;20045;-56
2022/09/24 00:08:17;;;;;;;8.30;6.57;;;;;;;;;;5030408;28;20029;-57
2022/09/24 00:10:45;;;;;;;9.60;6.30;;;;;;;;;;5030494;28;20079;-57
2022/09/24 00:13:13;;;;;;;13.07;7.40;;;;;;;;;;5033987;28;20022;-57
2022/09/24 00:15:44;;;;;;;10.60;6.43;;;;;;;;;;5034165;28;20075;-57
2022/09/24 00:18:11;;;;;;;9.52;6.93;;;;;;;;;;5030718;28;20499;-56
2022/09/24 00:20:38;;;;;;;9.43;6.63;;;;;;;;;;5030811;28;20025;-57
2022/09/24 00:23:05;;;;;;;10.40;6.70;;;;;;;;;;5029930;28;20368;-57
2022/09/24 00:28:14;;;;;;;10.82;6.70;;;;;;;;;;5029160;28;20028;-57
2022/09/24 00:30:42;;;;;;;8.00;6.07;;;;;;;;;;5029631;28;20426;-57
2022/09/24 00:33:08;;;;;;;8.90;6.30;;;;;;;;;;5028471;28;20037;-57
2022/09/24 00:35:35;;;;;;;10.40;6.07;;;;;;;;;;5029600;28;20121;-57
2022/09/24 00:38:01;;;;;;;9.30;6.18;;;;;;;;;;5027120;28;20521;-57
2022/09/24 00:40:34;;;;;;;10.90;5.97;;;;;;;;;;5030736;28;20026;-57
2022/09/24 00:43:00;;;;;;;9.75;6.25;;;;;;;;;;5037254;28;20021;-57
2022/09/24 00:45:28;;;;;;;10.10;6.65;;;;;;;;;;5020390;28;20034;-57
2022/09/24 00:47:53;;;;;;;8.88;6.07;;;;;;;;;;5029321;28;20029;-56
2022/09/24 00:50:33;;;;;;;10.00;6.32;;;;;;;;;;5029589;28;20075;-56
2022/09/24 00:53:02;;;;;;;10.77;6.68;;;;;;;;;;5025494;28;20490;-56
2022/09/24 00:55:28;;;;;;;9.82;6.03;;;;;;;;;;5030556;28;20064;-56
2022/09/24 00:58:00;;;;;;;9.75;6.47;;;;;;;;;;5031539;28;21008;-56
2022/09/24 01:00:26;;;;;;;7.22;5.57;;;;;;;;;;5027723;28;20175;-56
2022/09/24 01:03:04;;;;;;;12.35;6.65;;;;;;;;;;5028153;28;20508;-56
2022/09/24 01:05:30;;;;;;;8.48;6.20;;;;;;;;;;5028231;28;20021;-56
2022/09/24 01:07:56;;;;;;;7.45;5.68;;;;;;;;;;5029111;28;20529;-55
2022/09/24 01:10:46;;;;;;;9.25;6.55;;;;;;;;;;5029630;28;20029;-56
2022/09/24 01:13:21;;;;;;;;;;;;;;;;;;5029942;28;20371;-56
2022/09/24 01:15:54;;;;;;;8.75;6.00;;;;;;;;;;5029302;28;19913;-56
2022/09/24 01:18:52;;;;;;;8.63;6.20;;;;;;;;;;5030300;28;20112;-56
2022/09/24 01:21:20;;;;;;;6.97;5.63;;;;;;;;;;5038745;28;20040;-56
2022/09/24 01:24:14;;;;;;;11.20;6.43;;;;;;;;;;5030082;28;20018;-55
2022/09/24 01:27:13;;;;;;;10.52;6.28;;;;;;;;;;5026890;28;20517;-56
2022/09/24 01:30:10;;;;;;;9.02;6.40;;;;;;;;;;5030039;28;20098;-56
2022/09/24 01:32:49;;;;;;;9.95;6.45;;;;;;;;;;5025929;28;20025;-56
2022/09/24 01:35:38;;;;;;;9.82;6.20;;;;;;;;;;5029326;28;20033;-56
2022/09/24 01:38:16;;;;;;;9.02;5.85;;;;;;;;;;5019215;28;20033;-56
2022/09/24 01:40:44;;;;;;;9.77;6.40;;;;;;;;;;5029949;28;20156;-56
2022/09/24 01:43:11;;;;;;;10.77;6.82;;;;;;;;;;5025677;28;20022;-56
2022/09/24 01:45:38;;;;;;;9.35;6.50;;;;;;;;;;5025574;28;20044;-56
2022/09/24 01:48:05;;;;;;;11.27;6.25;;;;;;;;;;5029877;28;20391;-57
2022/09/24 01:50:43;;;;;;;8.15;6.28;;;;;;;;;;5029422;28;20039;-56
2022/09/24 01:53:44;;;;;;;8.15;6.03;;;;;;;;;;5038856;28;20316;-56
2022/09/24 01:56:17;;;;;;;7.93;6.10;;;;;;;;;;4963448;28;20127;-56
2022/09/24 01:58:48;;;;;;;9.38;6.10;;;;;;;;;;5019811;28;20033;-56
2022/09/24 02:01:21;;;;;;;8.18;5.75;;;;;;;;;;5027708;28;20487;-56
2022/09/24 02:03:54;;;;;;;11.00;6.70;;;;;;;;;;5028126;28;20065;-55
2022/09/24 02:06:27;;;;;;;10.98;6.43;;;;;;;;;;5026279;28;20045;-56
2022/09/24 02:08:55;;;;;;;8.75;6.65;;;;;;;;;;5029236;28;20045;-56
2022/09/24 02:11:23;;;;;;;10.52;6.65;;;;;;;;;;5027054;28;20527;-56
2022/09/24 02:13:56;;;;;;;8.00;6.30;;;;;;;;;;5028946;28;20311;-56
2022/09/24 02:16:28;;;;;;;10.27;6.80;;;;;;;;;;5028779;28;20038;-57
2022/09/24 02:18:57;;;;;;;8.68;6.20;;;;;;;;;;5029365;28;20049;-56
2022/09/24 02:21:23;;;;;;;11.20;6.20;;;;;;;;;;5028623;28;20032;-56
2022/09/24 02:24:01;;;;;;;10.27;6.65;;;;;;;;;;5029293;28;20284;-56
2022/09/24 02:26:27;;;;;;;8.85;6.43;;;;;;;;;;5027541;28;21904;-56
2022/09/24 02:28:53;;;;;;;10.02;6.85;;;;;;;;;;5028810;28;20123;-56
2022/09/24 02:31:26;;;;;;;9.38;6.20;;;;;;;;;;5027984;28;20519;-57
2022/09/24 02:36:37;;;;;;;8.60;5.88;;;;;;;;;;5029029;28;20032;-56
2022/09/24 02:39:03;;;;;;;11.00;6.60;;;;;;;;;;5029069;28;20498;-56
2022/09/24 02:41:30;;;;;;;9.98;6.30;;;;;;;;;;5027257;28;20026;-56
2022/09/24 02:43:55;;;;;;;10.23;6.63;;;;;;;;;;5026841;28;20495;-56
2022/09/24 02:46:21;;;;;;;9.82;6.05;;;;;;;;;;5027607;28;20033;-56
2022/09/24 02:48:46;;;;;;;11.27;6.32;;;;;;;;;;5028399;28;20021;-56
2022/09/24 02:51:12;;;;;;;10.60;6.53;;;;;;;;;;5028051;28;20468;-56
2022/09/24 02:53:37;;;;;;;10.23;6.32;;;;;;;;;;5028228;28;20025;-56
2022/09/24 02:56:03;;;;;;;8.00;6.18;;;;;;;;;;5028056;28;20025;-56
2022/09/24 02:58:29;;;;;;;9.48;6.70;;;;;;;;;;5030517;28;20025;-56
2022/09/24 03:00:56;;;;;;;10.82;6.97;;;;;;;;;;5030570;28;20028;-56
2022/09/24 03:03:22;;;;;;;10.73;7.10;;;;;;;;;;5026883;28;20585;-56
2022/09/24 03:05:48;;;;;;;11.60;7.03;;;;;;;;;;5028023;28;20029;-56
2022/09/24 03:08:14;;;;;;;11.90;7.15;;;;;;;;;;5028534;28;20481;-56
2022/09/24 03:10:39;;;;;;;9.60;6.68;;;;;;;;;;5029494;28;20301;-56
2022/09/24 03:13:05;;;;;;;10.38;6.80;;;;;;;;;;5031337;28;20113;-56
2022/09/24 03:15:31;;;;;;;11.50;7.35;;;;;;;;;;5063771;28;20033;-56
2022/09/24 03:17:56;;;;;;;11.52;7.63;;;;;;;;;;5032793;28;20112;-57
2022/09/24 03:20:23;;;;;;;8.15;6.68;;;;;;;;;;5031730;28;20242;-56
2022/09/24 03:22:51;;;;;;;12.02;7.40;;;;;;;;;;5028114;28;20028;-56
2022/09/24 03:25:17;;;;;;;9.82;7.07;;;;;;;;;;5032373;28;20478;-56
2022/09/24 03:27:42;;;;;;;9.63;6.93;;;;;;;;;;5031961;28;20026;-56
2022/09/24 03:32:52;;;;;;;11.23;7.05;;;;;;;;;;5033575;28;20056;-56
2022/09/24 03:35:18;;;;;;;12.25;7.00;;;;;;;;;;5031596;28;20468;-57
2022/09/24 03:37:44;;;;;;;10.93;7.20;;;;;;;;;;5031903;28;20175;-56
2022/09/24 03:40:09;;;;;;;9.25;6.93;;;;;;;;;;5031365;28;20544;-56
2022/09/24 03:42:35;;;;;;;11.80;7.03;;;;;;;;;;5030562;28;20025;-56
2022/09/24 03:45:00;;;;;;;10.75;7.32;;;;;;;;;;5031257;28;20033;-56
2022/09/24 03:47:26;;;;;;;12.73;7.18;;;;;;;;;;5031032;28;20403;-56
2022/09/24 03:49:52;;;;;;;10.55;6.75;;;;;;;;;;5032063;28;20038;-56
2022/09/24 03:52:18;;;;;;;9.68;7.25;;;;;;;;;;5030452;28;20028;-57
2022/09/24 03:54:43;;;;;;;11.18;7.70;;;;;;;;;;5031163;28;20017;-56
2022/09/24 03:57:13;;;;;;;12.23;7.50;;;;;;;;;;5030312;28;20025;-56
2022/09/24 03:59:39;;;;;;;10.60;7.78;;;;;;;;;;5032845;28;20033;-57
2022/09/24 04:02:04;;;;;;;12.68;8.23;;;;;;;;;;5030351;28;20471;-56
2022/09/24 04:04:31;;;;;;;13.80;9.40;;;;;;;;;;5030695;28;20072;-57
2022/09/24 04:06:57;;;;;;;13.45;8.93;;;;;;;;;;5029706;28;20180;-57
2022/09/24 04:09:22;;;;;;;12.15;8.38;;;;;;;;;;5031214;28;20498;-56
2022/09/24 04:11:47;;;;;;;12.65;8.65;;;;;;;;;;5029746;28;20403;-56
2022/09/24 04:14:13;;;;;;;11.27;7.88;;;;;;;;;;5029886;28;20033;-57
2022/09/24 04:16:39;;;;;;;9.65;7.50;;;;;;;;;;5030492;28;20026;-57
2022/09/24 04:19:06;;;;;;;11.55;7.25;;;;;;;;;;5031646;28;20367;-57
2022/09/24 04:21:31;;;;;;;10.68;7.25;;;;;;;;;;5030431;28;20487;-57
2022/09/24 04:23:57;;;;;;;10.60;7.55;;;;;;;;;;5030588;28;20039;-57
2022/09/24 04:26:22;;;;;;;10.85;7.03;;;;;;;;;;5030522;28;20441;-57
2022/09/24 04:28:49;;;;;;;10.95;7.07;;;;;;;;;;5030422;28;20037;-57
2022/09/24 04:31:14;;;;;;;9.70;6.95;;;;;;;;;;5029747;28;20025;-57
2022/09/24 04:33:40;;;;;;;9.80;7.10;;;;;;;;;;5035929;28;20021;-57
2022/09/24 04:36:05;;;;;;;11.55;6.88;;;;;;;;;;5032217;28;20046;-57
2022/09/24 04:38:31;;;;;;;11.15;7.07;;;;;;;;;;5031371;28;20051;-56
2022/09/24 04:41:07;;;;;;;9.57;6.28;;;;;;;;;;5029803;28;20021;-56
2022/09/24 04:43:32;;;;;;;11.70;7.10;;;;;;;;;;5030028;28;20458;-56
2022/09/24 04:45:58;;;;;;;10.90;7.40;;;;;;;;;;5028647;28;20166;-56
2022/09/24 04:48:24;;;;;;;10.77;7.65;;;;;;;;;;5030088;28;20030;-57
2022/09/24 04:50:50;;;;;;;11.50;7.53;;;;;;;;;;5030129;28;20242;-57
2022/09/24 04:53:16;;;;;;;12.40;7.82;;;;;;;;;;5028942;28;20495;-57
2022/09/24 04:55:41;;;;;;;11.65;7.97;;;;;;;;;;5029147;28;20056;-57
2022/09/24 04:58:07;;;;;;;10.82;7.65;;;;;;;;;;5029163;28;20029;-57
2022/09/24 05:00:32;;;;;;;9.98;7.57;;;;;;;;;;5029259;28;20028;-57
2022/09/24 05:03:00;;;;;;;10.65;7.18;;;;;;;;;;5028011;28;20076;-55
2022/09/24 05:05:26;;;;;;;10.65;7.13;;;;;;;;;;5030694;28;20064;-59
2022/09/24 05:07:51;;;;;;;12.57;8.40;;;;;;;;;;5029776;28;20483;-59
2022/09/24 05:10:17;;;;;;;10.73;7.85;;;;;;;;;;5037918;28;20032;-59
2022/09/24 05:12:42;;;;;;;13.05;8.50;;;;;;;;;;5036538;28;20021;-59
2022/09/24 05:15:08;;;;;;;13.10;8.38;;;;;;;;;;5029831;28;20025;-60
2022/09/24 05:17:38;;;;;;;12.38;7.95;;;;;;;;;;5029671;28;20048;-59
2022/09/24 05:20:04;;;;;;;9.48;7.10;;;;;;;;;;5029342;28;20032;-59
2022/09/24 05:22:30;;;;;;;13.68;7.82;;;;;;;;;;5029237;28;20041;-59
2022/09/24 05:24:55;;;;;;;10.00;8.18;;;;;;;;;;5029022;28;20113;-59
2022/09/24 05:27:22;;;;;;;14.43;7.57;;;;;;;;;;5036652;28;20040;-58
2022/09/24 05:29:47;;;;;;;12.15;7.63;;;;;;;;;;5030025;28;20021;-58
2022/09/24 05:32:17;;;;;;;13.48;7.63;;;;;;;;;;5029307;28;20047;-59
2022/09/24 05:34:43;;;;;;;;;;;;;;;;;;5030230;28;20496;-59
2022/09/24 05:37:09;;;;;;;13.00;7.53;;;;;;;;;;5032697;28;19908;-58
2022/09/24 05:39:34;;;;;;;11.88;7.95;;;;;;;;;;5029113;28;20026;-58
2022/09/24 05:42:03;;;;;;;14.27;7.85;;;;;;;;;;5020810;28;20059;-58
2022/09/24 05:44:28;;;;;;;11.82;7.97;;;;;;;;;;5032950;28;20428;-59
2022/09/24 05:46:54;;;;;;;9.82;7.55;;;;;;;;;;5028176;28;20116;-59
2022/09/24 05:49:19;;;;;;;11.70;7.38;;;;;;;;;;5029498;28;20427;-59
2022/09/24 05:51:47;;;;;;;11.68;8.48;;;;;;;;;;5028630;28;20025;-59
2022/09/24 05:54:13;;;;;;;11.70;7.95;;;;;;;;;;5028396;28;20014;-59
2022/09/24 05:56:38;;;;;;;14.90;9.50;;;;;;;;;;5027803;28;20438;-59
2022/09/24 05:59:03;;;;;;;13.00;9.32;;;;;;;;;;5029081;28;20037;-59
2022/09/24 06:01:29;;;;;;;12.48;8.77;;;;;;;;;;5027207;28;20033;-61
2022/09/24 06:03:58;;;;;;;14.65;10.20;;;;;;;;;;5028801;28;20017;-59
2022/09/24 06:06:24;;;;;;;16.10;9.77;;;;;;;;;;5028459;28;20063;-59
2022/09/24 06:08:50;;;;;;;14.73;9.38;;;;;;;;;;5028752;28;20514;-59
2022/09/24 06:11:15;;;;;;;14.27;9.40;;;;;;;;;;5026933;28;20029;-59
2022/09/24 06:13:41;;;;;;;17.88;10.55;;;;;;;;;;5030727;28;20483;-59
2022/09/24 06:16:08;;;;;;;12.55;9.00;;;;;;;;;;5028873;28;20061;-59
2022/09/24 06:18:35;;;;;;;11.25;8.73;;;;;;;;;;5028341;28;20106;-59
2022/09/24 06:21:02;;;;;;;12.60;9.00;;;;;;;;;;5028357;28;20029;-59
2022/09/24 06:23:29;;;;;;;18.65;9.55;;;;;;;;;;5029028;28;20033;-59
2022/09/24 06:25:55;;;;;;;12.45;9.35;;;;;;;;;;5029160;28;20033;-61
2022/09/24 06:28:20;;;;;;;15.23;9.60;;;;;;;;;;5030346;28;20521;-60
2022/09/24 06:30:46;;;;;;;16.35;9.80;;;;;;;;;;5028295;28;20044;-60
2022/09/24 06:33:12;;;;;;;14.93;10.30;;;;;;;;;;5027251;28;20460;-60
2022/09/24 06:35:40;;;;;;;14.30;9.40;;;;;;;;;;5028683;28;20091;-60
2022/09/24 06:38:07;;;;;;;21.15;12.23;;;;;;;;;;5028842;28;20034;-60
2022/09/24 06:40:33;;;;;;;20.92;12.82;;;;;;;;;;5028816;28;20030;-60
2022/09/24 06:42:58;;;;;;;22.83;13.18;;;;;;;;;;5026949;28;20082;-60
2022/09/24 06:45:25;;;;;;;12.50;9.18;;;;;;;;;;5028007;28;20410;-61
2022/09/24 06:47:56;;;;;;;14.30;9.23;;;;;;;;;;5033640;28;20025;-61
2022/09/24 06:50:23;;;;;;;13.32;9.30;;;;;;;;;;5032542;28;20029;-60
2022/09/24 06:52:48;;;;;;;12.68;8.68;;;;;;;;;;5029971;28;20025;-60
2022/09/24 06:55:15;;;;;;;16.10;8.82;;;;;;;;;;5032538;28;20123;-60
2022/09/24 06:57:41;;;;;;;12.02;8.10;;;;;;;;;;5041827;28;20532;-60
2022/09/24 07:00:07;;;;;;;12.05;8.15;;;;;;;;;;5032892;28;20033;-60
2022/09/24 07:02:32;;;;;;;12.63;8.68;;;;;;;;;;5030661;28;20079;-60
2022/09/24 07:04:58;;;;;;;9.27;7.28;;;;;;;;;;5039851;28;20033;-60
2022/09/24 07:07:30;;;;;;;11.10;7.40;;;;;;;;;;5029617;28;20035;-60
2022/09/24 07:09:56;;;;;;;10.70;7.43;;;;;;;;;;5030526;28;20325;-60
2022/09/24 07:12:22;;;;;;;13.25;7.13;;;;;;;;;;5031012;28;20029;-59
2022/09/24 07:14:48;;;;;;;11.55;7.50;;;;;;;;;;5027019;28;20030;-61
2022/09/24 07:17:14;;;;;;;12.43;7.65;;;;;;;;;;5031646;28;20541;-61
2022/09/24 07:19:39;;;;;;;21.67;9.25;;;;;;;;;;5032441;28;20033;-61
2022/09/24 07:22:05;;;;;;;16.38;10.00;;;;;;;;;;5031473;28;20025;-61
2022/09/24 07:24:30;;;;;;;15.73;9.90;;;;;;;;;;5031689;28;20068;-60
2022/09/24 07:26:55;;;;;;;14.82;9.52;;;;;;;;;;5034753;28;20017;-60
2022/09/24 07:29:21;;;;;;;16.00;9.07;;;;;;;;;;5037344;28;20025;-61
2022/09/24 07:31:46;;;;;;;15.15;9.77;;;;;;;;;;5029270;28;20237;-60
2022/09/24 07:34:15;;;;;;;13.55;8.50;;;;;;;;;;5031465;28;20032;-61
2022/09/24 07:36:44;;;;;;;13.53;8.93;;;;;;;;;;5036103;28;20025;-60
2022/09/24 07:39:09;;;;;;;14.27;8.82;;;;;;;;;;5031895;28;20502;-60
2022/09/24 07:41:34;;;;;;;16.90;10.48;;;;;;;;;;5030606;28;20037;-60
2022/09/24 07:44:00;;;;;;;15.43;10.13;;;;;;;;;;5032002;28;20104;-60
2022/09/24 07:46:26;;;;;;;15.70;9.32;;;;;;;;;;5031582;28;20044;-60
2022/09/24 07:48:55;;;;;;;13.18;8.65;;;;;;;;;;5031490;28;20440;-60
2022/09/24 07:51:26;;;;;;;15.15;8.50;;;;;;;;;;5029883;28;20498;-60
2022/09/24 07:53:52;;;;;;;14.73;9.48;;;;;;;;;;5030755;28;20036;-60
2022/09/24 07:56:18;;;;;;;11.38;8.20;;;;;;;;;;5031075;28;20395;-60
2022/09/24 07:58:44;;;;;;;11.32;7.90;;;;;;;;;;5031645;28;20468;-60
2022/09/24 08:01:09;;;;;;;12.32;8.65;;;;;;;;;;5031005;28;20039;-60
2022/09/24 08:03:35;;;;;;;13.70;9.30;;;;;;;;;;5034077;28;20029;-60
2022/09/24 08:06:03;;;;;;;12.35;8.48;;;;;;;;;;5031469;28;20021;-61
2022/09/24 08:08:28;;;;;;;11.77;8.35;;;;;;;;;;5031545;28;20091;-61
2022/09/24 08:10:53;;;;;;;14.90;8.13;;;;;;;;;;5031530;28;20474;-61
2022/09/24 08:13:19;;;;;;;12.88;7.70;;;;;;;;;;5029483;28;20055;-60
2022/09/24 08:15:44;;;;;;;9.68;7.05;;;;;;;;;;5030389;28;20124;-60
2022/09/24 08:18:10;;;;;;;15.10;7.80;;;;;;;;;;5030677;28;20383;-60
2022/09/24 08:20:37;;;;;;;12.88;7.32;;;;;;;;;;5029804;28;20028;-61
2022/09/24 08:23:04;;;;;;;10.43;7.28;;;;;;;;;;5022256;28;20387;-60
2022/09/24 08:25:30;;;;;;;10.35;7.22;;;;;;;;;;5025544;28;20029;-60
2022/09/24 08:28:04;;;;;;;11.38;7.30;;;;;;;;;;5031055;28;20072;-61
2022/09/24 08:30:30;;;;;;;8.75;6.72;;;;;;;;;;5025734;28;20030;-60
2022/09/24 08:32:57;;;;;;;8.93;6.53;;;;;;;;;;5031589;28;20029;-60
2022/09/24 08:35:22;;;;;;;7.75;6.50;;;;;;;;;;5031987;28;20056;-61
2022/09/24 08:37:48;;;;;;;11.82;7.00;;;;;;;;;;5030414;28;20478;-61
2022/09/24 08:40:20;;;;;;;9.00;6.47;;;;;;;;;;5030135;28;20497;-61
2022/09/24 08:43:04;;;;;;;10.05;6.40;;;;;;;;;;5029252;28;20112;-62
2022/09/24 08:48:26;;;;;;;6.50;5.03;;;;;;;;;;5030261;28;20127;-62
2022/09/24 08:51:00;;;;;;;;;;;;;;;;;;5031145;28;20036;-62
2022/09/24 08:53:32;;;;;;;8.60;5.40;;;;;;;;;;5038906;28;19923;-62
2022/09/24 08:56:01;;;;;;;7.32;5.32;;;;;;;;;;5027204;28;20036;-63
2022/09/24 08:58:48;;;;;;;7.90;5.43;;;;;;;;;;5030450;28;20026;-62
2022/09/24 09:01:50;;;;;;;9.82;6.32;;;;;;;;;;5024354;28;20495;-62
2022/09/24 09:04:24;;;;;;;7.03;4.85;;;;;;;;;;5028017;28;20289;-62
2022/09/24 09:07:14;;;;;;;8.15;4.63;;;;;;;;;;5029231;28;20033;-62
2022/09/24 09:09:58;;;;;;;6.22;4.40;;;;;;;;;;5026916;28;20044;-62
2022/09/24 09:12:33;;;;;;;6.55;4.45;;;;;;;;;;5029614;28;20071;-62
2022/09/24 09:15:05;;;;;;;6.75;4.80;;;;;;;;;;5029583;28;20108;-62
2022/09/24 09:17:55;;;;;;;6.95;4.78;;;;;;;;;;5030901;28;20120;-62
2022/09/24 09:20:32;;;;;;;7.93;4.90;;;;;;;;;;5025483;28;20036;-62
2022/09/24 09:23:03;;;;;;;7.75;5.20;;;;;;;;;;5026262;28;20030;-62
2022/09/24 09:25:35;;;;;;;8.65;5.25;;;;;;;;;;5024996;28;20403;-61
2022/09/24 09:28:13;;;;;;;6.38;3.90;;;;;;;;;;5025426;28;20071;-62
2022/09/24 09:30:55;;;;;;;4.93;3.97;;;;;;;;;;5025631;28;20021;-61
2022/09/24 09:33:23;;;;;;;5.88;3.58;;;;;;;;;;5034863;28;20442;-61
2022/09/24 09:35:57;;;;;;;5.40;3.42;;;;;;;;;;5029807;28;20025;-60
2022/09/24 09:38:42;;;;;;;4.65;3.50;;;;;;;;;;5022604;28;20490;-61
2022/09/24 09:41:24;;;;;;;7.68;3.92;;;;;;;;;;5028211;28;20073;-61
2022/09/24 09:43:58;;;;;;;5.97;3.88;;;;;;;;;;5029201;28;20083;-61
2022/09/24 09:46:30;;;;;;;9.40;4.47;;;;;;;;;;5029143;28;20052;-61
2022/09/24 09:49:01;;;;;;;8.02;4.50;;;;;;;;;;5032071;28;20083;-61
2022/09/24 09:51:35;;;;;;;5.90;4.22;;;;;;;;;;5027187;28;20609;-61
2022/09/24 09:54:02;;;;;;;8.55;4.20;;;;;;;;;;5028555;28;20033;-60
2022/09/24 09:56:33;;;;;;;7.15;4.43;;;;;;;;;;5031444;28;20514;-61
2022/09/24 09:59:06;;;;;;;5.10;3.38;;;;;;;;;;5029100;28;20025;-61
2022/09/24 10:01:34;;;;;;;4.93;3.75;;;;;;;;;;5027490;28;20395;-61
2022/09/24 10:04:02;;;;;;;4.35;3.20;;;;;;;;;;5032575;28;20513;-61
2022/09/24 10:06:36;;;;;;;4.43;3.15;;;;;;;;;;5022759;28;20505;-61
2022/09/24 10:09:18;;;;;;;8.43;5.30;;;;;;;;;;5029381;28;20501;-61
2022/09/24 10:11:44;;;;;;;7.43;5.00;;;;;;;;;;5028196;28;20315;-61
2022/09/24 10:14:14;;;;;;;8.13;4.57;;;;;;;;;;5029332;28;20422;-61
2022/09/24 10:16:45;;;;;;;7.38;3.83;;;;;;;;;;5028790;28;20025;-61
2022/09/24 10:19:22;;;;;;;3.88;3.45;;;;;;;;;;5028643;28;20029;-61
2022/09/24 10:21:48;;;;;;;4.15;3.60;;;;;;;;;;5029518;28;20022;-61
2022/09/24 10:24:18;;;;;;;5.07;3.53;;;;;;;;;;5033191;28;20032;-61
2022/09/24 10:26:45;;;;;;;4.13;3.38;;;;;;;;;;5032320;28;20121;-61
2022/09/24 10:32:12;;;;;;;6.55;4.65;;;;;;;;;;5031975;28;20059;-61
2022/09/24 10:34:37;;;;;;;8.43;4.13;;;;;;;;;;5031587;28;20017;-61
2022/09/24 10:37:13;;;;;;;5.35;3.63;;;;;;;;;;5032602;28;20406;-62
2022/09/24 10:39:39;;;;;;;4.65;3.63;;;;;;;;;;5033269;28;20017;-61
2022/09/24 10:42:06;;;;;;;5.28;3.67;;;;;;;;;;5031932;28;20024;-62
2022/09/24 10:44:36;;;;;;;4.82;3.20;;;;;;;;;;5032255;28;20021;-61
2022/09/24 10:47:22;;;;;;;3.40;3.10;;;;;;;;;;5032301;28;20428;-61
2022/09/24 10:49:50;;;;;;;4.25;3.30;;;;;;;;;;5033390;28;20071;-61
2022/09/24 10:52:37;;;;;;;3.97;3.33;;;;;;;;;;5025716;28;20026;-61
2022/09/24 10:55:54;;;;;;;4.75;3.05;;;;;;;;;;5057988;28;20025;-61
2022/09/24 10:58:58;;;;;;;4.72;3.40;;;;;;;;;;5032475;28;20038;-61
2022/09/24 11:01:51;;;;;;;4.13;3.58;;;;;;;;;;5032234;28;20047;-61
2022/09/24 11:04:31;;;;;;;6.03;3.30;;;;;;;;;;5029112;28;20489;-61
2022/09/24 11:07:06;;;;;;;5.93;3.53;;;;;;;;;;5040307;28;20399;-61
2022/09/24 11:09:58;;;;;;;6.38;4.00;;;;;;;;;;5032453;28;20040;-60
2022/09/24 11:13:01;;;;;;;6.75;4.18;;;;;;;;;;5031063;28;20053;-61
2022/09/24 11:16:14;;;;;;;5.65;3.90;;;;;;;;;;5031026;28;20068;-61
2022/09/24 11:19:09;;;;;;;4.35;2.92;;;;;;;;;;5023874;28;20068;-61
2022/09/24 11:21:46;;;;;;;4.57;3.28;;;;;;;;;;5026710;28;20124;-60
2022/09/24 11:24:18;;;;;;;5.28;3.53;;;;;;;;;;5026186;28;20032;-61
2022/09/24 11:27:03;;;;;;;5.20;3.47;;;;;;;;;;5031584;28;20056;-60
2022/09/24 11:30:20;;;;;;;5.63;3.47;;;;;;;;;;5032565;28;20029;-61
2022/09/24 11:33:12;;;;;;;4.05;3.20;;;;;;;;;;5013634;28;20037;-61
2022/09/24 11:36:07;;;;;;;5.97;3.47;;;;;;;;;;5062362;28;20053;-61
2022/09/24 11:39:06;;;;;;;4.03;3.50;;;;;;;;;;5025298;28;20044;-61
2022/09/24 11:42:04;;;;;;;6.13;3.97;;;;;;;;;;5027760;28;20030;-60
2022/09/24 11:44:53;;;;;;;3.95;3.45;;;;;;;;;;5031299;28;20176;-60
2022/09/24 11:47:38;;;;;;;4.10;3.50;;;;;;;;;;5031175;28;20021;-60
2022/09/24 11:50:28;;;;;;;4.30;3.20;;;;;;;;;;5029404;28;20104;-59
2022/09/24 11:52:55;;;;;;;;;;;;;;;;;;5027957;28;20029;-59
2022/09/24 11:55:33;;;;;;;;;;;;;;;;;;5029837;28;19924;-60
2022/09/24 11:58:19;;;;;;;;;;;;;;;;;;5030609;28;20394;-60
2022/09/24 12:01:05;;;;;;;;;;;;;;;;;;5032456;28;19913;-60
2022/09/24 12:03:38;;;;;;;;;;;;;;;;;;5031088;28;19917;-59
2022/09/24 12:06:09;;;;;;;;;;;;;;;;;;5024638;28;19959;-59
2022/09/24 12:08:37;;;;;;;;;;;;;;;;;;5028396;28;20287;-59
2022/09/24 12:11:17;;;;;;;;;;;;;;;;;;5030874;28;19917;-59
2022/09/24 12:13:55;;;;;;;;;;;;;;;;;;5031636;28;19920;-58
2022/09/24 12:16:25;;;;;;;;;;;;;;;;;;5025287;28;19963;-59
2022/09/24 12:19:09;;;;;;;;;;;;;;;;;;5029708;28;19917;-58
2022/09/24 12:21:42;;;;;;;;;;;;;;;;;;5026911;28;19917;-59
2022/09/24 12:24:25;;;;;;;;;;;;;;;;;;5029732;28;19979;-59
2022/09/24 12:26:52;;;;;;;;;;;;;;;;;;5028327;28;19917;-59
2022/09/24 12:35:32;;;;;;;;;;;;;;;;;;5027658;28;19945;-59
2022/09/24 12:38:02;;;;;;;;;;;;;;;;;;5033522;28;20397;-59
2022/09/24 12:40:33;;;;;;;;;;;;;;;;;;5031962;28;19913;-59
2022/09/24 12:43:00;;;;;;;;;;;;;;;;;;5024233;28;19913;-59
2022/09/24 12:45:25;;;;;;;;;;;;;;;;;;5060710;28;20399;-59
2022/09/24 12:47:53;;;;;;;;;;;;;;;;;;5027870;28;19921;-59
2022/09/24 12:50:32;;;;;;;;;;;;;;;;;;5029429;28;19916;-59
2022/09/24 12:52:57;;;;;;;;;;;;;;;;;;5028441;28;19912;-59
2022/09/24 12:55:24;;;;;;;;;;;;;;;;;;5029914;28;20385;-59
2022/09/24 12:57:51;;;;;;;;;;;;;;;;;;5029317;28;20236;-59
2022/09/24 13:00:32;;;;;;;;;;;;;;;;;;5027778;28;19913;-59
2022/09/24 13:02:58;;;;;;;;;;;;;;;;;;5028571;28;19913;-59
2022/09/24 13:05:26;;;;;;;;;;;;;;;;;;5028726;28;19936;-59
2022/09/24 13:07:54;;;;;;;;;;;;;;;;;;5028939;28;19920;-59
2022/09/24 13:10:22;;;;;;;;;;;;;;;;;;5026117;28;20386;-59
2022/09/24 13:12:48;;;;;;;;;;;;;;;;;;5026534;28;19920;-59
2022/09/24 13:15:24;;;;;;;;;;;;;;;;;;5026666;28;19917;-59
2022/09/24 13:17:58;;;;;;;;;;;;;;;;;;5043534;28;20407;-59
2022/09/24 13:20:27;;;;;;;;;;;;;;;;;;5026596;28;19909;-59
2022/09/24 13:22:57;;;;;;;;;;;;;;;;;;5020820;28;19936;-59
2022/09/24 13:25:23;;;;;;;;;;;;;;;;;;5026987;28;20275;-59
2022/09/24 13:28:02;;;;;;;;;;;;;;;;;;5028232;28;19941;-62
2022/09/24 13:30:27;;;;;;;;;;;;;;;;;;5028594;28;19913;-62
2022/09/24 13:32:57;;;;;;;;;;;;;;;;;;5027213;28;19917;-62
2022/09/24 13:35:24;;;;;;;;;;;;;;;;;;5025196;28;19916;-61
2022/09/24 13:38:13;;;;;;;;;;;;;;;;;;5027300;28;19919;-61
2022/09/24 13:40:42;;;;;;;;;;;;;;;;;;5025305;28;19920;-61
2022/09/24 13:43:11;;;;;;;;;;;;;;;;;;5025881;28;19923;-61
2022/09/24 13:45:38;;;;;;;;;;;;;;;;;;5025061;28;20154;-61
2022/09/24 13:48:04;;;;;;;;;;;;;;;;;;5025776;28;19913;-61
2022/09/24 13:50:32;;;;;;;;;;;;;;;;;;5029741;28;19919;-61
2022/09/24 13:52:58;;;;;;;;;;;;;;;;;;5028880;28;19920;-61
2022/09/24 13:55:25;;;;;;;;;;;;;;;;;;5029560;28;20290;-61
2022/09/24 13:57:51;;;;;;;;;;;;;;;;;;5029457;28;19917;-61
2022/09/24 14:00:16;;;;;;;;;;;;;;;;;;5030360;28;19966;-61
2022/09/24 14:03:02;;;;;;;;;;;;;;;;;;5028290;28;20393;-61
2022/09/24 14:05:29;;;;;;;;;;;;;;;;;;5029690;28;19923;-61
2022/09/24 14:07:56;;;;;;;;;;;;;;;;;;5028438;28;20355;-61
2022/09/24 14:10:23;;;;;;;;;;;;;;;;;;5028322;28;19916;-61
2022/09/24 14:12:58;;;;;;;;;;;;;;;;;;5028097;28;19917;-61
2022/09/24 14:15:25;;;;;;;;;;;;;;;;;;5025199;28;20298;-61
2022/09/24 14:17:54;;;;;;;;;;;;;;;;;;5028028;28;19921;-61
2022/09/24 14:20:21;;;;;;;;;;;;;;;;;;5028579;28;20299;-61
2022/09/24 14:22:46;;;;;;;;;;;;;;;;;;5027325;28;19909;-61
2022/09/24 14:25:16;;;;;;;;;;;;;;;;;;5035644;28;20289;-61
2022/09/24 14:27:44;;;;;;;;;;;;;;;;;;5027320;28;20053;-63
2022/09/24 14:30:20;;;;;;;;;;;;;;;;;;5029604;28;19913;-62
2022/09/24 14:32:49;;;;;;;;;;;;;;;;;;5026459;28;19939;-62
2022/09/24 14:35:19;;;;;;;;;;;;;;;;;;5024865;28;19933;-61
2022/09/24 14:37:56;;;;;;;;;;;;;;;;;;5025883;28;20215;-61
2022/09/24 14:40:22;;;;;;;;;;;;;;;;;;5027313;28;19923;-63
2022/09/24 14:42:48;;;;;;;;;;;;;;;;;;5027679;28;19912;-62
2022/09/24 14:45:18;;;;;;;;;;;;;;;;;;5028576;28;20432;-62
2022/09/24 14:47:44;;;;;;;;;;;;;;;;;;5026533;28;19956;-61
2022/09/24 14:50:28;;;;;;;;;;;;;;;;;;5025068;28;20404;-61
2022/09/24 14:52:55;;;;;;;;;;;;;;;;;;5027853;28;20274;-61
2022/09/24 14:55:21;;;;;;;;;;;;;;;;;;5029623;28;19917;-61
2022/09/24 14:57:48;;;;;;;;;;;;;;;;;;5029741;28;19991;-61
2022/09/24 15:00:19;;;;;;;;;;;;;;;;;;5028904;28;19920;-61
2022/09/24 15:02:48;;;;;;;;;;;;;;;;;;5035760;28;19913;-61
2022/09/24 15:05:14;;;;;;;;;;;;;;;;;;5033755;28;19916;-61
2022/09/24 15:07:39;;;;;;;;;;;;;;;;;;5030884;28;19999;-60
2022/09/24 15:10:05;;;;;;;;;;;;;;;;;;5032145;28;19913;-60
2022/09/24 15:12:38;;;;;;;;;;;;;;;;;;5032015;28;19963;-60
2022/09/24 15:15:04;;;;;;;;;;;;;;;;;;5027890;28;19916;-60
2022/09/24 15:17:30;;;;;;;;;;;;;;;;;;5032006;28;19909;-60
2022/09/24 15:19:56;;;;;;;;;;;;;;;;;;5032973;28;19913;-60
2022/09/24 15:22:25;;;;;;;;;;;;;;;;;;5032581;28;19909;-60
2022/09/24 15:24:50;;;;;;;;;;;;;;;;;;5032929;28;19917;-60
2022/09/24 15:27:32;;;;;;;;;;;;;;;;;;5032618;28;20302;-60
2022/09/24 15:29:58;;;;;;;;;;;;;;;;;;5032669;28;19909;-60
2022/09/24 15:32:25;;;;;;;;;;;;;;;;;;5032185;28;20306;-60
2022/09/24 15:34:50;;;;;;;;;;;;;;;;;;5043075;28;19952;-59
2022/09/24 15:37:19;;;;;;;;;;;;;;;;;;5026709;28;19960;-60
2022/09/24 15:39:48;;;;;;;;;;;;;;;;;;5032245;28;19917;-60
2022/09/24 15:42:18;;;;;;;;;;;;;;;;;;5036151;28;19913;-60
2022/09/24 15:44:46;;;;;;;;;;;;;;;;;;5060523;28;20563;-60
2022/09/24 15:47:12;;;;;;;;;;;;;;;;;;5028084;28;19913;-60